sensor_id;sensor_type;location;lat;lon;timestamp;P1;durP1;ratioP1;P2;durP2;ratioP2
20988;SDS011;10653;47.052;15.410;2022-07-23T00:01:17;12.00;;;11.10;;
20988;SDS011;10653;47.052;15.410;2022-07-23T00:03:43;12.07;;;11.07;;
20988;SDS011;10653;47.052;15.410;2022-07-23T00:06:10;12.17;;;11.10;;
20988;SDS011;10653;47.052;15.410;2022-07-23T00:08:36;13.57;;;12.37;;
20988;SDS011;10653;47.052;15.410;2022-07-23T00:11:02;12.80;;;11.60;;
20988;SDS011;10653;47.052;15.410;2022-07-23T00:13:28;12.10;;;11.03;;
20988;SDS011;10653;47.052;15.410;2022-07-23T00:15:54;10.60;;;9.63;;
20988;SDS011;10653;47.052;15.410;2022-07-23T00:18:20;10.77;;;9.97;;
20988;SDS011;10653;47.052;15.410;2022-07-23T00:20:46;12.00;;;10.90;;
20988;SDS011;10653;47.052;15.410;2022-07-23T00:23:12;12.23;;;11.13;;
20988;SDS011;10653;47.052;15.410;2022-07-23T00:25:38;10.83;;;9.77;;
20988;SDS011;10653;47.052;15.410;2022-07-23T00:28:05;13.23;;;12.03;;
20988;SDS011;10653;47.052;15.410;2022-07-23T00:30:31;10.67;;;9.70;;
20988;SDS011;10653;47.052;15.410;2022-07-23T00:33:01;14.70;;;13.23;;
20988;SDS011;10653;47.052;15.410;2022-07-23T00:35:29;12.03;;;11.03;;
20988;SDS011;10653;47.052;15.410;2022-07-23T00:37:56;13.43;;;12.33;;
20988;SDS011;10653;47.052;15.410;2022-07-23T00:40:23;13.70;;;12.50;;
20988;SDS011;10653;47.052;15.410;2022-07-23T00:42:49;14.93;;;13.50;;
20988;SDS011;10653;47.052;15.410;2022-07-23T00:45:15;11.50;;;10.40;;
20988;SDS011;10653;47.052;15.410;2022-07-23T00:47:41;14.00;;;12.70;;
20988;SDS011;10653;47.052;15.410;2022-07-23T00:50:08;11.70;;;10.70;;
20988;SDS011;10653;47.052;15.410;2022-07-23T00:52:35;12.63;;;11.50;;
20988;SDS011;10653;47.052;15.410;2022-07-23T00:55:01;12.10;;;11.10;;
20988;SDS011;10653;47.052;15.410;2022-07-23T00:57:28;11.43;;;10.50;;
20988;SDS011;10653;47.052;15.410;2022-07-23T00:59:54;11.00;;;10.10;;
20988;SDS011;10653;47.052;15.410;2022-07-23T01:02:21;10.40;;;9.50;;
20988;SDS011;10653;47.052;15.410;2022-07-23T01:04:47;11.10;;;10.20;;
20988;SDS011;10653;47.052;15.410;2022-07-23T01:07:13;11.03;;;10.13;;
20988;SDS011;10653;47.052;15.410;2022-07-23T01:09:39;11.23;;;10.23;;
20988;SDS011;10653;47.052;15.410;2022-07-23T01:12:06;12.00;;;10.97;;
20988;SDS011;10653;47.052;15.410;2022-07-23T01:14:32;13.90;;;12.47;;
20988;SDS011;10653;47.052;15.410;2022-07-23T01:16:58;12.33;;;11.33;;
20988;SDS011;10653;47.052;15.410;2022-07-23T01:19:24;12.07;;;11.07;;
20988;SDS011;10653;47.052;15.410;2022-07-23T01:21:51;11.43;;;10.53;;
20988;SDS011;10653;47.052;15.410;2022-07-23T01:24:18;11.73;;;10.20;;
20988;SDS011;10653;47.052;15.410;2022-07-23T01:26:45;11.77;;;10.43;;
20988;SDS011;10653;47.052;15.410;2022-07-23T01:29:11;11.30;;;10.30;;
20988;SDS011;10653;47.052;15.410;2022-07-23T01:31:38;12.87;;;11.77;;
20988;SDS011;10653;47.052;15.410;2022-07-23T01:34:04;11.80;;;10.80;;
20988;SDS011;10653;47.052;15.410;2022-07-23T01:36:32;12.50;;;11.30;;
20988;SDS011;10653;47.052;15.410;2022-07-23T01:38:58;11.40;;;10.47;;
20988;SDS011;10653;47.052;15.410;2022-07-23T01:41:24;11.80;;;10.73;;
20988;SDS011;10653;47.052;15.410;2022-07-23T01:43:50;11.73;;;10.73;;
20988;SDS011;10653;47.052;15.410;2022-07-23T01:46:16;11.53;;;10.63;;
20988;SDS011;10653;47.052;15.410;2022-07-23T01:48:42;12.30;;;11.07;;
20988;SDS011;10653;47.052;15.410;2022-07-23T01:51:08;12.30;;;11.30;;
20988;SDS011;10653;47.052;15.410;2022-07-23T01:53:34;12.50;;;11.40;;
20988;SDS011;10653;47.052;15.410;2022-07-23T01:56:00;11.63;;;10.73;;
20988;SDS011;10653;47.052;15.410;2022-07-23T01:58:27;11.63;;;10.60;;
20988;SDS011;10653;47.052;15.410;2022-07-23T02:00:53;11.27;;;10.30;;
20988;SDS011;10653;47.052;15.410;2022-07-23T02:03:19;11.83;;;10.90;;
20988;SDS011;10653;47.052;15.410;2022-07-23T02:05:45;12.30;;;11.30;;
20988;SDS011;10653;47.052;15.410;2022-07-23T02:08:11;12.00;;;11.10;;
20988;SDS011;10653;47.052;15.410;2022-07-23T02:10:37;10.40;;;9.60;;
20988;SDS011;10653;47.052;15.410;2022-07-23T02:13:04;11.97;;;10.87;;
20988;SDS011;10653;47.052;15.410;2022-07-23T02:15:30;11.33;;;10.43;;
20988;SDS011;10653;47.052;15.410;2022-07-23T02:17:56;12.67;;;11.57;;
20988;SDS011;10653;47.052;15.410;2022-07-23T02:20:22;11.33;;;10.43;;
20988;SDS011;10653;47.052;15.410;2022-07-23T02:22:48;12.07;;;11.07;;
20988;SDS011;10653;47.052;15.410;2022-07-23T02:25:14;10.17;;;9.37;;
20988;SDS011;10653;47.052;15.410;2022-07-23T02:27:40;11.50;;;10.60;;
20988;SDS011;10653;47.052;15.410;2022-07-23T02:30:06;11.67;;;10.67;;
20988;SDS011;10653;47.052;15.410;2022-07-23T02:32:32;11.53;;;10.53;;
20988;SDS011;10653;47.052;15.410;2022-07-23T02:34:58;11.70;;;10.80;;
20988;SDS011;10653;47.052;15.410;2022-07-23T02:37:24;12.43;;;11.43;;
20988;SDS011;10653;47.052;15.410;2022-07-23T02:39:51;13.00;;;11.80;;
20988;SDS011;10653;47.052;15.410;2022-07-23T02:42:17;13.10;;;12.00;;
20988;SDS011;10653;47.052;15.410;2022-07-23T02:44:43;13.83;;;12.63;;
20988;SDS011;10653;47.052;15.410;2022-07-23T02:47:09;12.60;;;11.50;;
20988;SDS011;10653;47.052;15.410;2022-07-23T02:49:35;13.70;;;12.50;;
20988;SDS011;10653;47.052;15.410;2022-07-23T02:52:01;14.10;;;12.80;;
20988;SDS011;10653;47.052;15.410;2022-07-23T02:54:27;13.67;;;12.57;;
20988;SDS011;10653;47.052;15.410;2022-07-23T02:56:53;15.07;;;13.00;;
20988;SDS011;10653;47.052;15.410;2022-07-23T02:59:19;13.57;;;12.37;;
20988;SDS011;10653;47.052;15.410;2022-07-23T03:01:45;12.27;;;11.17;;
20988;SDS011;10653;47.052;15.410;2022-07-23T03:04:11;12.23;;;11.27;;
20988;SDS011;10653;47.052;15.410;2022-07-23T03:06:37;12.97;;;11.77;;
20988;SDS011;10653;47.052;15.410;2022-07-23T03:09:04;11.87;;;10.87;;
20988;SDS011;10653;47.052;15.410;2022-07-23T03:11:30;13.00;;;11.90;;
20988;SDS011;10653;47.052;15.410;2022-07-23T03:13:56;11.27;;;10.27;;
20988;SDS011;10653;47.052;15.410;2022-07-23T03:16:22;13.57;;;12.37;;
20988;SDS011;10653;47.052;15.410;2022-07-23T03:18:48;12.30;;;11.20;;
20988;SDS011;10653;47.052;15.410;2022-07-23T03:21:14;13.13;;;11.40;;
20988;SDS011;10653;47.052;15.410;2022-07-23T03:23:40;12.90;;;11.80;;
20988;SDS011;10653;47.052;15.410;2022-07-23T03:26:06;11.87;;;10.97;;
20988;SDS011;10653;47.052;15.410;2022-07-23T03:28:32;11.87;;;10.87;;
20988;SDS011;10653;47.052;15.410;2022-07-23T03:30:58;12.23;;;11.33;;
20988;SDS011;10653;47.052;15.410;2022-07-23T03:33:24;11.73;;;10.70;;
20988;SDS011;10653;47.052;15.410;2022-07-23T03:35:50;12.47;;;11.47;;
20988;SDS011;10653;47.052;15.410;2022-07-23T03:38:16;15.77;;;14.40;;
20988;SDS011;10653;47.052;15.410;2022-07-23T03:40:42;12.73;;;11.60;;
20988;SDS011;10653;47.052;15.410;2022-07-23T03:43:08;14.00;;;12.90;;
20988;SDS011;10653;47.052;15.410;2022-07-23T03:45:34;14.53;;;13.07;;
20988;SDS011;10653;47.052;15.410;2022-07-23T03:48:00;13.33;;;11.93;;
20988;SDS011;10653;47.052;15.410;2022-07-23T03:50:26;13.13;;;12.00;;
20988;SDS011;10653;47.052;15.410;2022-07-23T03:52:52;15.10;;;13.67;;
20988;SDS011;10653;47.052;15.410;2022-07-23T03:55:19;13.73;;;12.53;;
20988;SDS011;10653;47.052;15.410;2022-07-23T03:57:45;12.13;;;11.03;;
20988;SDS011;10653;47.052;15.410;2022-07-23T04:00:11;14.70;;;13.43;;
20988;SDS011;10653;47.052;15.410;2022-07-23T04:02:38;12.57;;;11.27;;
20988;SDS011;10653;47.052;15.410;2022-07-23T04:05:04;14.00;;;12.77;;
20988;SDS011;10653;47.052;15.410;2022-07-23T04:07:30;12.93;;;11.73;;
20988;SDS011;10653;47.052;15.410;2022-07-23T04:09:56;13.40;;;12.30;;
20988;SDS011;10653;47.052;15.410;2022-07-23T04:12:22;13.40;;;11.67;;
20988;SDS011;10653;47.052;15.410;2022-07-23T04:14:49;14.13;;;12.87;;
20988;SDS011;10653;47.052;15.410;2022-07-23T04:17:15;14.70;;;13.50;;
20988;SDS011;10653;47.052;15.410;2022-07-23T04:19:41;14.33;;;13.03;;
20988;SDS011;10653;47.052;15.410;2022-07-23T04:22:09;14.57;;;13.27;;
20988;SDS011;10653;47.052;15.410;2022-07-23T04:24:35;15.00;;;13.80;;
20988;SDS011;10653;47.052;15.410;2022-07-23T04:27:01;14.90;;;13.70;;
20988;SDS011;10653;47.052;15.410;2022-07-23T04:29:27;17.47;;;14.30;;
20988;SDS011;10653;47.052;15.410;2022-07-23T04:31:53;14.97;;;13.67;;
20988;SDS011;10653;47.052;15.410;2022-07-23T04:34:19;12.93;;;11.73;;
20988;SDS011;10653;47.052;15.410;2022-07-23T04:36:45;14.63;;;13.37;;
20988;SDS011;10653;47.052;15.410;2022-07-23T04:39:11;15.13;;;13.60;;
20988;SDS011;10653;47.052;15.410;2022-07-23T04:41:37;14.80;;;13.63;;
20988;SDS011;10653;47.052;15.410;2022-07-23T04:44:04;12.90;;;11.70;;
20988;SDS011;10653;47.052;15.410;2022-07-23T04:46:30;13.20;;;12.10;;
20988;SDS011;10653;47.052;15.410;2022-07-23T04:48:56;13.77;;;12.47;;
20988;SDS011;10653;47.052;15.410;2022-07-23T04:51:22;14.17;;;12.87;;
20988;SDS011;10653;47.052;15.410;2022-07-23T04:53:48;14.30;;;13.00;;
20988;SDS011;10653;47.052;15.410;2022-07-23T04:56:14;15.17;;;13.93;;
20988;SDS011;10653;47.052;15.410;2022-07-23T04:58:40;18.37;;;15.17;;
20988;SDS011;10653;47.052;15.410;2022-07-23T05:01:06;14.33;;;13.23;;
20988;SDS011;10653;47.052;15.410;2022-07-23T05:03:32;14.20;;;13.10;;
20988;SDS011;10653;47.052;15.410;2022-07-23T05:05:58;15.87;;;14.57;;
20988;SDS011;10653;47.052;15.410;2022-07-23T05:08:24;14.07;;;12.97;;
20988;SDS011;10653;47.052;15.410;2022-07-23T05:10:50;14.20;;;13.00;;
20988;SDS011;10653;47.052;15.410;2022-07-23T05:13:17;14.03;;;12.73;;
20988;SDS011;10653;47.052;15.410;2022-07-23T05:15:43;12.40;;;11.27;;
20988;SDS011;10653;47.052;15.410;2022-07-23T05:18:09;13.33;;;12.23;;
20988;SDS011;10653;47.052;15.410;2022-07-23T05:20:35;13.73;;;12.53;;
20988;SDS011;10653;47.052;15.410;2022-07-23T05:23:01;13.20;;;12.07;;
20988;SDS011;10653;47.052;15.410;2022-07-23T05:25:27;14.83;;;13.63;;
20988;SDS011;10653;47.052;15.410;2022-07-23T05:27:53;14.47;;;13.20;;
20988;SDS011;10653;47.052;15.410;2022-07-23T05:30:19;14.00;;;12.80;;
20988;SDS011;10653;47.052;15.410;2022-07-23T05:32:45;14.40;;;12.90;;
20988;SDS011;10653;47.052;15.410;2022-07-23T05:35:11;14.97;;;13.77;;
20988;SDS011;10653;47.052;15.410;2022-07-23T05:37:37;14.17;;;12.97;;
20988;SDS011;10653;47.052;15.410;2022-07-23T05:40:04;14.87;;;13.57;;
20988;SDS011;10653;47.052;15.410;2022-07-23T05:42:37;15.40;;;14.20;;
20988;SDS011;10653;47.052;15.410;2022-07-23T05:45:03;13.80;;;12.67;;
20988;SDS011;10653;47.052;15.410;2022-07-23T05:47:39;14.77;;;13.50;;
20988;SDS011;10653;47.052;15.410;2022-07-23T05:50:06;14.83;;;13.63;;
20988;SDS011;10653;47.052;15.410;2022-07-23T05:52:32;14.50;;;13.30;;
20988;SDS011;10653;47.052;15.410;2022-07-23T05:54:58;15.27;;;14.07;;
20988;SDS011;10653;47.052;15.410;2022-07-23T05:57:24;15.97;;;14.67;;
20988;SDS011;10653;47.052;15.410;2022-07-23T05:59:50;15.20;;;13.90;;
20988;SDS011;10653;47.052;15.410;2022-07-23T06:02:16;15.80;;;14.50;;
20988;SDS011;10653;47.052;15.410;2022-07-23T06:04:42;16.97;;;15.47;;
20988;SDS011;10653;47.052;15.410;2022-07-23T06:07:08;16.77;;;15.37;;
20988;SDS011;10653;47.052;15.410;2022-07-23T06:09:34;17.40;;;15.90;;
20988;SDS011;10653;47.052;15.410;2022-07-23T06:12:00;14.67;;;13.47;;
20988;SDS011;10653;47.052;15.410;2022-07-23T06:14:26;15.33;;;13.93;;
20988;SDS011;10653;47.052;15.410;2022-07-23T06:16:52;14.83;;;13.63;;
20988;SDS011;10653;47.052;15.410;2022-07-23T06:19:36;15.00;;;13.73;;
20988;SDS011;10653;47.052;15.410;2022-07-23T06:22:02;16.47;;;15.03;;
20988;SDS011;10653;47.052;15.410;2022-07-23T06:24:28;15.67;;;14.47;;
20988;SDS011;10653;47.052;15.410;2022-07-23T06:26:54;15.53;;;14.23;;
20988;SDS011;10653;47.052;15.410;2022-07-23T06:29:20;16.20;;;14.80;;
20988;SDS011;10653;47.052;15.410;2022-07-23T06:31:46;16.27;;;14.87;;
20988;SDS011;10653;47.052;15.410;2022-07-23T06:34:12;15.43;;;14.13;;
20988;SDS011;10653;47.052;15.410;2022-07-23T06:36:38;16.60;;;15.10;;
20988;SDS011;10653;47.052;15.410;2022-07-23T06:39:04;15.23;;;14.03;;
20988;SDS011;10653;47.052;15.410;2022-07-23T06:41:30;14.60;;;13.27;;
20988;SDS011;10653;47.052;15.410;2022-07-23T06:43:56;15.73;;;14.33;;
20988;SDS011;10653;47.052;15.410;2022-07-23T06:46:22;16.10;;;14.63;;
20988;SDS011;10653;47.052;15.410;2022-07-23T06:48:48;15.40;;;14.07;;
20988;SDS011;10653;47.052;15.410;2022-07-23T06:51:14;16.70;;;15.30;;
20988;SDS011;10653;47.052;15.410;2022-07-23T06:53:40;16.40;;;15.00;;
20988;SDS011;10653;47.052;15.410;2022-07-23T06:56:06;16.90;;;15.40;;
20988;SDS011;10653;47.052;15.410;2022-07-23T06:58:32;16.73;;;15.13;;
20988;SDS011;10653;47.052;15.410;2022-07-23T07:00:58;17.00;;;15.63;;
20988;SDS011;10653;47.052;15.410;2022-07-23T07:03:24;14.50;;;13.30;;
20988;SDS011;10653;47.052;15.410;2022-07-23T07:05:50;14.57;;;13.27;;
20988;SDS011;10653;47.052;15.410;2022-07-23T07:08:18;14.07;;;12.87;;
20988;SDS011;10653;47.052;15.410;2022-07-23T07:10:44;16.50;;;14.90;;
20988;SDS011;10653;47.052;15.410;2022-07-23T07:13:10;15.10;;;13.90;;
20988;SDS011;10653;47.052;15.410;2022-07-23T07:15:36;14.57;;;13.37;;
20988;SDS011;10653;47.052;15.410;2022-07-23T07:18:02;14.70;;;13.40;;
20988;SDS011;10653;47.052;15.410;2022-07-23T07:20:28;15.40;;;14.10;;
20988;SDS011;10653;47.052;15.410;2022-07-23T07:22:54;16.03;;;14.63;;
20988;SDS011;10653;47.052;15.410;2022-07-23T07:25:20;14.33;;;13.13;;
20988;SDS011;10653;47.052;15.410;2022-07-23T07:27:46;15.67;;;14.23;;
20988;SDS011;10653;47.052;15.410;2022-07-23T07:30:12;15.33;;;13.93;;
20988;SDS011;10653;47.052;15.410;2022-07-23T07:32:38;13.17;;;12.07;;
20988;SDS011;10653;47.052;15.410;2022-07-23T07:35:05;13.30;;;12.20;;
20988;SDS011;10653;47.052;15.410;2022-07-23T07:37:31;15.17;;;13.67;;
20988;SDS011;10653;47.052;15.410;2022-07-23T07:39:57;14.40;;;13.30;;
20988;SDS011;10653;47.052;15.410;2022-07-23T07:42:23;12.47;;;11.47;;
20988;SDS011;10653;47.052;15.410;2022-07-23T07:44:49;11.60;;;10.60;;
20988;SDS011;10653;47.052;15.410;2022-07-23T07:47:15;10.03;;;9.13;;
20988;SDS011;10653;47.052;15.410;2022-07-23T07:49:41;10.80;;;9.80;;
20988;SDS011;10653;47.052;15.410;2022-07-23T07:52:08;10.53;;;9.70;;
20988;SDS011;10653;47.052;15.410;2022-07-23T07:54:34;10.10;;;9.10;;
20988;SDS011;10653;47.052;15.410;2022-07-23T07:57:00;9.90;;;9.10;;
20988;SDS011;10653;47.052;15.410;2022-07-23T07:59:26;10.70;;;9.70;;
20988;SDS011;10653;47.052;15.410;2022-07-23T08:01:52;9.70;;;8.80;;
20988;SDS011;10653;47.052;15.410;2022-07-23T08:04:18;10.10;;;9.30;;
20988;SDS011;10653;47.052;15.410;2022-07-23T08:06:44;9.37;;;8.57;;
20988;SDS011;10653;47.052;15.410;2022-07-23T08:09:10;8.07;;;7.37;;
20988;SDS011;10653;47.052;15.410;2022-07-23T08:11:36;9.20;;;7.57;;
20988;SDS011;10653;47.052;15.410;2022-07-23T08:14:02;7.43;;;6.80;;
20988;SDS011;10653;47.052;15.410;2022-07-23T08:16:28;7.20;;;6.60;;
20988;SDS011;10653;47.052;15.410;2022-07-23T08:18:54;7.97;;;7.27;;
20988;SDS011;10653;47.052;15.410;2022-07-23T08:21:20;7.70;;;7.03;;
20988;SDS011;10653;47.052;15.410;2022-07-23T08:23:46;7.77;;;7.00;;
20988;SDS011;10653;47.052;15.410;2022-07-23T08:26:12;6.50;;;5.90;;
20988;SDS011;10653;47.052;15.410;2022-07-23T08:28:38;6.47;;;5.87;;
20988;SDS011;10653;47.052;15.410;2022-07-23T08:31:05;7.30;;;6.70;;
20988;SDS011;10653;47.052;15.410;2022-07-23T08:33:31;7.40;;;6.53;;
20988;SDS011;10653;47.052;15.410;2022-07-23T08:35:57;6.80;;;6.27;;
20988;SDS011;10653;47.052;15.410;2022-07-23T08:38:23;7.43;;;6.83;;
20988;SDS011;10653;47.052;15.410;2022-07-23T08:40:53;6.40;;;5.90;;
20988;SDS011;10653;47.052;15.410;2022-07-23T08:43:20;6.40;;;5.90;;
20988;SDS011;10653;47.052;15.410;2022-07-23T08:45:48;7.20;;;6.60;;
20988;SDS011;10653;47.052;15.410;2022-07-23T08:48:18;6.77;;;6.27;;
20988;SDS011;10653;47.052;15.410;2022-07-23T08:50:48;6.70;;;6.10;;
20988;SDS011;10653;47.052;15.410;2022-07-23T08:53:15;7.30;;;6.70;;
20988;SDS011;10653;47.052;15.410;2022-07-23T08:55:44;7.30;;;6.70;;
20988;SDS011;10653;47.052;15.410;2022-07-23T08:58:11;7.33;;;6.73;;
20988;SDS011;10653;47.052;15.410;2022-07-23T09:00:37;7.20;;;6.63;;
20988;SDS011;10653;47.052;15.410;2022-07-23T09:03:03;7.37;;;6.77;;
20988;SDS011;10653;47.052;15.410;2022-07-23T09:05:29;6.67;;;6.07;;
20988;SDS011;10653;47.052;15.410;2022-07-23T09:10:42;7.30;;;6.80;;
20988;SDS011;10653;47.052;15.410;2022-07-23T09:13:28;7.87;;;7.27;;
20988;SDS011;10653;47.052;15.410;2022-07-23T09:15:56;6.73;;;6.23;;
20988;SDS011;10653;47.052;15.410;2022-07-23T09:18:29;6.60;;;6.10;;
20988;SDS011;10653;47.052;15.410;2022-07-23T09:23:55;6.90;;;6.40;;
20988;SDS011;10653;47.052;15.410;2022-07-23T09:29:04;7.40;;;6.70;;
20988;SDS011;10653;47.052;15.410;2022-07-23T09:31:31;7.97;;;7.27;;
20988;SDS011;10653;47.052;15.410;2022-07-23T09:34:08;6.80;;;6.30;;
20988;SDS011;10653;47.052;15.410;2022-07-23T09:36:34;6.90;;;6.30;;
20988;SDS011;10653;47.052;15.410;2022-07-23T09:39:00;7.87;;;7.17;;
20988;SDS011;10653;47.052;15.410;2022-07-23T09:41:29;6.80;;;6.23;;
20988;SDS011;10653;47.052;15.410;2022-07-23T09:43:59;7.17;;;6.67;;
20988;SDS011;10653;47.052;15.410;2022-07-23T09:46:31;7.70;;;7.00;;
20988;SDS011;10653;47.052;15.410;2022-07-23T09:48:57;6.90;;;6.40;;
20988;SDS011;10653;47.052;15.410;2022-07-23T09:51:23;6.70;;;6.20;;
20988;SDS011;10653;47.052;15.410;2022-07-23T09:54:00;7.43;;;6.83;;
20988;SDS011;10653;47.052;15.410;2022-07-23T09:56:26;7.63;;;7.03;;
20988;SDS011;10653;47.052;15.410;2022-07-23T09:58:52;6.60;;;6.00;;
20988;SDS011;10653;47.052;15.410;2022-07-23T10:01:36;5.00;;;4.60;;
20988;SDS011;10653;47.052;15.410;2022-07-23T10:04:03;6.60;;;6.10;;
20988;SDS011;10653;47.052;15.410;2022-07-23T10:06:30;6.43;;;5.93;;
20988;SDS011;10653;47.052;15.410;2022-07-23T10:08:57;6.13;;;5.63;;
20988;SDS011;10653;47.052;15.410;2022-07-23T10:11:24;6.33;;;5.83;;
20988;SDS011;10653;47.052;15.410;2022-07-23T10:13:50;6.17;;;5.67;;
20988;SDS011;10653;47.052;15.410;2022-07-23T10:16:24;6.80;;;6.20;;
20988;SDS011;10653;47.052;15.410;2022-07-23T10:18:51;6.10;;;5.60;;
20988;SDS011;10653;47.052;15.410;2022-07-23T10:37:14;6.50;;;5.90;;
20988;SDS011;10653;47.052;15.410;2022-07-23T10:39:45;6.53;;;6.03;;
20988;SDS011;10653;47.052;15.410;2022-07-23T10:44:39;9.13;;;6.43;;
20988;SDS011;10653;47.052;15.410;2022-07-23T10:47:05;7.90;;;7.30;;
20988;SDS011;10653;47.052;15.410;2022-07-23T10:49:50;8.60;;;7.30;;
20988;SDS011;10653;47.052;15.410;2022-07-23T10:52:26;9.97;;;9.17;;
20988;SDS011;10653;47.052;15.410;2022-07-23T10:57:19;8.70;;;7.90;;
20988;SDS011;10653;47.052;15.410;2022-07-23T11:02:29;9.87;;;8.97;;
20988;SDS011;10653;47.052;15.410;2022-07-23T11:04:59;10.13;;;9.30;;
20988;SDS011;10653;47.052;15.410;2022-07-23T11:07:25;9.07;;;8.37;;
20988;SDS011;10653;47.052;15.410;2022-07-23T11:09:51;9.00;;;8.30;;
20988;SDS011;10653;47.052;15.410;2022-07-23T11:17:30;9.97;;;9.27;;
20988;SDS011;10653;47.052;15.410;2022-07-23T11:22:35;10.17;;;9.40;;
20988;SDS011;10653;47.052;15.410;2022-07-23T11:25:01;10.57;;;9.80;;
20988;SDS011;10653;47.052;15.410;2022-07-23T11:27:44;9.70;;;9.00;;
20988;SDS011;10653;47.052;15.410;2022-07-23T11:30:36;9.23;;;8.53;;
20988;SDS011;10653;47.052;15.410;2022-07-23T11:35:35;7.27;;;6.67;;
20988;SDS011;10653;47.052;15.410;2022-07-23T11:38:06;6.93;;;6.53;;
20988;SDS011;10653;47.052;15.410;2022-07-23T11:40:32;8.33;;;7.83;;
20988;SDS011;10653;47.052;15.410;2022-07-23T11:42:59;8.17;;;7.60;;
20988;SDS011;10653;47.052;15.410;2022-07-23T11:45:29;8.03;;;7.43;;
20988;SDS011;10653;47.052;15.410;2022-07-23T11:47:56;8.07;;;7.47;;
20988;SDS011;10653;47.052;15.410;2022-07-23T11:50:23;7.20;;;6.70;;
20988;SDS011;10653;47.052;15.410;2022-07-23T11:52:53;8.37;;;7.77;;
20988;SDS011;10653;47.052;15.410;2022-07-23T11:55:19;7.60;;;7.10;;
20988;SDS011;10653;47.052;15.410;2022-07-23T11:57:45;8.53;;;7.93;;
20988;SDS011;10653;47.052;15.410;2022-07-23T12:00:12;7.73;;;7.23;;
20988;SDS011;10653;47.052;15.410;2022-07-23T12:02:41;7.30;;;6.70;;
20988;SDS011;10653;47.052;15.410;2022-07-23T12:05:11;8.60;;;8.00;;
20988;SDS011;10653;47.052;15.410;2022-07-23T12:07:39;8.17;;;7.60;;
20988;SDS011;10653;47.052;15.410;2022-07-23T12:10:24;7.73;;;7.23;;
20988;SDS011;10653;47.052;15.410;2022-07-23T12:12:57;7.93;;;7.43;;
20988;SDS011;10653;47.052;15.410;2022-07-23T12:15:28;8.17;;;7.47;;
20988;SDS011;10653;47.052;15.410;2022-07-23T12:17:57;7.53;;;7.03;;
20988;SDS011;10653;47.052;15.410;2022-07-23T12:20:28;7.97;;;7.47;;
20988;SDS011;10653;47.052;15.410;2022-07-23T12:22:56;9.27;;;8.67;;
20988;SDS011;10653;47.052;15.410;2022-07-23T12:25:23;9.10;;;8.27;;
20988;SDS011;10653;47.052;15.410;2022-07-23T12:28:00;9.70;;;8.23;;
20988;SDS011;10653;47.052;15.410;2022-07-23T12:30:31;8.60;;;7.80;;
20988;SDS011;10653;47.052;15.410;2022-07-23T12:32:58;7.67;;;7.03;;
20988;SDS011;10653;47.052;15.410;2022-07-23T12:35:30;8.40;;;7.80;;
20988;SDS011;10653;47.052;15.410;2022-07-23T12:37:59;7.67;;;7.17;;
20988;SDS011;10653;47.052;15.410;2022-07-23T12:40:27;8.03;;;7.43;;
20988;SDS011;10653;47.052;15.410;2022-07-23T12:45:22;7.87;;;7.27;;
20988;SDS011;10653;47.052;15.410;2022-07-23T12:47:59;7.53;;;7.00;;
20988;SDS011;10653;47.052;15.410;2022-07-23T12:53:01;9.00;;;8.30;;
20988;SDS011;10653;47.052;15.410;2022-07-23T12:55:27;8.17;;;7.63;;
20988;SDS011;10653;47.052;15.410;2022-07-23T12:57:54;8.70;;;8.10;;
20988;SDS011;10653;47.052;15.410;2022-07-23T13:00:28;8.57;;;7.83;;
20988;SDS011;10653;47.052;15.410;2022-07-23T13:02:54;8.40;;;7.80;;
20988;SDS011;10653;47.052;15.410;2022-07-23T13:05:20;8.87;;;8.27;;
20988;SDS011;10653;47.052;15.410;2022-07-23T13:07:46;9.00;;;8.30;;
20988;SDS011;10653;47.052;15.410;2022-07-23T13:10:11;8.40;;;7.80;;
20988;SDS011;10653;47.052;15.410;2022-07-23T13:12:38;8.43;;;7.83;;
20988;SDS011;10653;47.052;15.410;2022-07-23T13:15:04;7.70;;;7.10;;
20988;SDS011;10653;47.052;15.410;2022-07-23T13:17:31;10.50;;;9.50;;
20988;SDS011;10653;47.052;15.410;2022-07-23T13:19:57;9.13;;;8.23;;
20988;SDS011;10653;47.052;15.410;2022-07-23T13:22:23;10.47;;;9.53;;
20988;SDS011;10653;47.052;15.410;2022-07-23T13:24:49;9.43;;;8.83;;
20988;SDS011;10653;47.052;15.410;2022-07-23T13:27:15;10.30;;;9.50;;
20988;SDS011;10653;47.052;15.410;2022-07-23T13:29:41;10.43;;;9.53;;
20988;SDS011;10653;47.052;15.410;2022-07-23T13:32:07;10.83;;;10.03;;
20988;SDS011;10653;47.052;15.410;2022-07-23T13:34:33;9.50;;;8.70;;
20988;SDS011;10653;47.052;15.410;2022-07-23T13:36:59;10.10;;;9.30;;
20988;SDS011;10653;47.052;15.410;2022-07-23T13:39:25;10.47;;;9.67;;
20988;SDS011;10653;47.052;15.410;2022-07-23T13:41:51;10.07;;;9.37;;
20988;SDS011;10653;47.052;15.410;2022-07-23T13:44:17;9.57;;;8.80;;
20988;SDS011;10653;47.052;15.410;2022-07-23T13:46:44;10.30;;;9.50;;
20988;SDS011;10653;47.052;15.410;2022-07-23T13:49:11;9.70;;;8.90;;
20988;SDS011;10653;47.052;15.410;2022-07-23T13:51:37;10.77;;;9.97;;
20988;SDS011;10653;47.052;15.410;2022-07-23T13:54:03;9.87;;;9.10;;
20988;SDS011;10653;47.052;15.410;2022-07-23T13:56:29;9.67;;;8.97;;
20988;SDS011;10653;47.052;15.410;2022-07-23T13:58:55;8.83;;;8.23;;
20988;SDS011;10653;47.052;15.410;2022-07-23T14:01:21;9.70;;;8.90;;
20988;SDS011;10653;47.052;15.410;2022-07-23T14:03:47;9.33;;;8.63;;
20988;SDS011;10653;47.052;15.410;2022-07-23T14:06:13;8.70;;;8.10;;
20988;SDS011;10653;47.052;15.410;2022-07-23T14:08:40;9.10;;;8.50;;
20988;SDS011;10653;47.052;15.410;2022-07-23T14:11:06;9.40;;;8.70;;
20988;SDS011;10653;47.052;15.410;2022-07-23T14:13:32;8.73;;;8.13;;
20988;SDS011;10653;47.052;15.410;2022-07-23T14:15:58;8.33;;;7.73;;
20988;SDS011;10653;47.052;15.410;2022-07-23T14:18:24;8.03;;;7.40;;
20988;SDS011;10653;47.052;15.410;2022-07-23T14:20:49;8.43;;;7.77;;
20988;SDS011;10653;47.052;15.410;2022-07-23T14:23:16;7.57;;;7.07;;
20988;SDS011;10653;47.052;15.410;2022-07-23T14:25:42;8.10;;;7.50;;
20988;SDS011;10653;47.052;15.410;2022-07-23T14:28:08;8.53;;;7.83;;
20988;SDS011;10653;47.052;15.410;2022-07-23T14:30:34;9.30;;;8.50;;
20988;SDS011;10653;47.052;15.410;2022-07-23T14:33:00;10.20;;;9.33;;
20988;SDS011;10653;47.052;15.410;2022-07-23T14:35:26;9.63;;;8.90;;
20988;SDS011;10653;47.052;15.410;2022-07-23T14:37:52;9.20;;;8.50;;
20988;SDS011;10653;47.052;15.410;2022-07-23T14:40:18;8.70;;;8.07;;
20988;SDS011;10653;47.052;15.410;2022-07-23T14:42:44;8.60;;;8.00;;
20988;SDS011;10653;47.052;15.410;2022-07-23T14:45:12;8.70;;;8.00;;
20988;SDS011;10653;47.052;15.410;2022-07-23T14:47:38;8.90;;;8.20;;
20988;SDS011;10653;47.052;15.410;2022-07-23T14:50:05;9.67;;;8.97;;
20988;SDS011;10653;47.052;15.410;2022-07-23T14:52:31;9.80;;;9.10;;
20988;SDS011;10653;47.052;15.410;2022-07-23T14:54:57;9.67;;;8.90;;
20988;SDS011;10653;47.052;15.410;2022-07-23T14:57:23;8.57;;;7.97;;
20988;SDS011;10653;47.052;15.410;2022-07-23T14:59:49;8.33;;;7.73;;
20988;SDS011;10653;47.052;15.410;2022-07-23T15:02:15;8.80;;;8.17;;
20988;SDS011;10653;47.052;15.410;2022-07-23T15:04:41;8.57;;;7.87;;
20988;SDS011;10653;47.052;15.410;2022-07-23T15:07:07;9.40;;;8.67;;